createdAt,value
2019-05-21T00:00:46.858Z,0.00
2019-05-21T00:01:46.854Z,0.00
2019-05-21T00:02:46.866Z,0.00
2019-05-21T00:03:46.845Z,0.00
2019-05-21T00:04:46.835Z,0.00
2019-05-21T00:05:46.830Z,0.00
2019-05-21T00:06:46.819Z,0.00
2019-05-21T00:07:46.811Z,0.00
2019-05-21T00:08:46.778Z,0.00
2019-05-21T00:09:46.763Z,0.00
2019-05-21T00:10:46.760Z,0.00
2019-05-21T00:11:46.741Z,0.00
2019-05-21T00:12:46.800Z,0.00
2019-05-21T00:13:46.745Z,0.00
2019-05-21T00:14:46.724Z,0.00
2019-05-21T00:15:46.691Z,0.00
2019-05-21T00:16:46.684Z,0.00
2019-05-21T00:17:46.703Z,0.00
2019-05-21T00:18:46.678Z,0.00
2019-05-21T00:19:46.656Z,0.00
2019-05-21T00:20:46.653Z,0.00
2019-05-21T00:21:46.641Z,0.00
2019-05-21T00:22:46.645Z,0.00
2019-05-21T00:23:46.619Z,0.00
2019-05-21T00:24:46.621Z,0.00
2019-05-21T00:25:46.597Z,0.00
2019-05-21T00:26:46.598Z,0.00
2019-05-21T00:27:46.598Z,0.00
2019-05-21T00:28:46.550Z,0.00
2019-05-21T00:29:46.552Z,0.00
2019-05-21T00:30:46.554Z,0.00
2019-05-21T00:31:46.527Z,0.00
2019-05-21T00:32:46.519Z,0.00
2019-05-21T00:33:46.551Z,0.00
2019-05-21T00:34:46.503Z,0.00
2019-05-21T00:35:46.526Z,0.00
2019-05-21T00:36:46.475Z,0.00
2019-05-21T00:37:46.446Z,0.00
2019-05-21T00:38:46.483Z,0.00
2019-05-21T00:39:46.439Z,0.00
2019-05-21T00:40:46.436Z,0.00
2019-05-21T00:41:46.418Z,0.00
2019-05-21T00:42:46.403Z,0.00
2019-05-21T00:43:46.403Z,0.00
2019-05-21T00:44:46.390Z,0.00
2019-05-21T00:45:46.372Z,0.00
2019-05-21T00:46:46.357Z,0.00
2019-05-21T00:47:46.349Z,0.00
2019-05-21T00:48:46.333Z,0.00
2019-05-21T00:49:46.345Z,0.00
2019-05-21T00:50:46.318Z,0.00
2019-05-21T00:51:46.300Z,0.00
2019-05-21T00:52:46.296Z,0.00
2019-05-21T00:53:46.294Z,0.00
2019-05-21T00:54:46.290Z,0.00
2019-05-21T00:55:46.263Z,0.00
2019-05-21T00:56:46.252Z,0.00
2019-05-21T00:57:46.247Z,0.00
2019-05-21T00:58:46.236Z,0.00
2019-05-21T00:59:46.235Z,0.00
2019-05-21T01:00:46.761Z,0.00
2019-05-21T01:01:46.203Z,0.00
2019-05-21T01:03:55.754Z,0.00
2019-05-21T01:05:00.767Z,0.00
2019-05-21T01:05:56.691Z,0.00
2019-05-21T01:06:56.674Z,0.00
2019-05-21T01:07:56.671Z,0.00
2019-05-21T01:08:56.653Z,0.00
2019-05-21T01:09:56.672Z,0.00
2019-05-21T01:10:56.622Z,0.00
2019-05-21T01:11:56.617Z,0.00
2019-05-21T01:12:56.611Z,0.00
2019-05-21T01:13:56.590Z,0.00
2019-05-21T01:14:56.622Z,0.00
2019-05-21T01:15:56.584Z,0.00
2019-05-21T01:16:56.571Z,0.00
2019-05-21T01:17:56.560Z,0.00
2019-05-21T01:18:56.567Z,0.00
2019-05-21T01:19:56.555Z,0.00
2019-05-21T01:20:56.563Z,0.00
2019-05-21T01:21:56.518Z,0.00
2019-05-21T01:22:56.528Z,0.00
2019-05-21T01:23:56.496Z,0.00
2019-05-21T01:24:56.506Z,0.00
2019-05-21T01:25:56.466Z,0.00
2019-05-21T01:26:56.465Z,0.00
2019-05-21T01:27:56.459Z,0.00
2019-05-21T01:28:56.440Z,0.00
2019-05-21T01:29:56.438Z,0.00
2019-05-21T01:30:56.416Z,0.00
2019-05-21T01:31:56.394Z,0.00
2019-05-21T01:32:56.397Z,0.00
2019-05-21T01:33:56.383Z,0.00
2019-05-21T01:34:56.403Z,0.00
2019-05-21T01:35:56.385Z,0.00
2019-05-21T01:36:56.366Z,0.00
2019-05-21T01:37:56.344Z,0.00
2019-05-21T01:38:57.116Z,0.00
2019-05-21T01:39:56.331Z,0.00
2019-05-21T01:40:56.349Z,0.00
2019-05-21T01:41:56.301Z,0.00
2019-05-21T01:42:56.294Z,0.00
2019-05-21T01:43:56.293Z,0.00
2019-05-21T01:44:56.293Z,0.00
2019-05-21T01:45:56.260Z,0.00
2019-05-21T01:46:56.254Z,0.00
2019-05-21T01:47:56.271Z,0.00
2019-05-21T01:48:56.249Z,0.00
2019-05-21T01:49:56.243Z,0.00
2019-05-21T01:50:56.241Z,0.00
2019-05-21T01:51:56.237Z,0.00
2019-05-21T01:52:56.189Z,0.00
2019-05-21T01:53:56.197Z,0.00
2019-05-21T01:54:56.166Z,0.00
2019-05-21T01:55:56.647Z,0.00
2019-05-21T01:56:56.226Z,0.00
2019-05-21T01:57:56.138Z,0.00
2019-05-21T01:58:56.141Z,0.00
2019-05-21T01:59:56.100Z,0.00
2019-05-21T02:00:56.138Z,0.00
2019-05-21T02:01:56.106Z,0.00
2019-05-21T02:02:56.161Z,0.00
2019-05-21T02:03:56.060Z,0.00
2019-05-21T02:04:56.078Z,0.00
2019-05-21T02:05:56.057Z,0.00
2019-05-21T02:06:56.052Z,0.00
2019-05-21T02:07:56.020Z,0.00
2019-05-21T02:08:56.014Z,0.00
2019-05-21T02:09:55.993Z,0.00
2019-05-21T02:10:56.024Z,0.00
2019-05-21T02:11:55.974Z,0.00
2019-05-21T02:12:55.980Z,0.00
2019-05-21T02:13:55.976Z,0.00
2019-05-21T02:14:55.970Z,0.00
2019-05-21T02:15:55.960Z,0.00
2019-05-21T02:16:55.931Z,0.00
2019-05-21T02:17:55.914Z,0.00
2019-05-21T02:18:55.897Z,0.00
2019-05-21T02:19:55.880Z,0.00
2019-05-21T02:20:55.900Z,0.00
2019-05-21T02:21:55.856Z,0.00
2019-05-21T02:22:55.854Z,0.00
2019-05-21T02:23:55.833Z,0.00
2019-05-21T02:24:55.823Z,0.00
2019-05-21T02:25:55.842Z,0.00
2019-05-21T02:26:55.854Z,0.00
2019-05-21T02:27:55.807Z,0.00
2019-05-21T02:28:55.828Z,0.00
2019-05-21T02:29:55.768Z,0.00
2019-05-21T02:30:56.796Z,0.00
2019-05-21T02:31:55.769Z,0.00
2019-05-21T02:32:55.740Z,0.00
2019-05-21T02:33:55.749Z,0.00
2019-05-21T02:34:55.726Z,0.00
2019-05-21T02:35:55.736Z,0.00
2019-05-21T02:36:55.777Z,0.00
2019-05-21T02:37:55.705Z,0.00
2019-05-21T02:38:55.670Z,0.00
2019-05-21T02:39:55.698Z,0.00
2019-05-21T02:40:55.710Z,0.00
2019-05-21T02:41:55.649Z,0.00
2019-05-21T02:42:55.697Z,0.00
2019-05-21T02:43:55.636Z,0.00
2019-05-21T02:44:55.628Z,0.00
2019-05-21T02:45:55.663Z,0.00
2019-05-21T02:46:55.594Z,0.00
2019-05-21T02:47:55.595Z,0.00
2019-05-21T02:48:55.602Z,0.00
2019-05-21T02:49:55.558Z,0.00
2019-05-21T02:50:55.553Z,0.00
2019-05-21T02:51:55.556Z,0.00
2019-05-21T02:52:55.560Z,0.00
2019-05-21T02:53:55.547Z,0.00
2019-05-21T02:54:55.547Z,0.00
2019-05-21T02:55:55.514Z,0.00
2019-05-21T02:56:55.500Z,0.00
2019-05-21T02:57:55.488Z,0.00
2019-05-21T02:58:55.477Z,0.00
2019-05-21T02:59:55.467Z,0.00
2019-05-21T03:00:55.443Z,0.00
2019-05-21T03:01:55.467Z,0.00
2019-05-21T03:02:55.438Z,0.00
2019-05-21T03:13:48.097Z,0.00
2019-05-21T03:14:49.098Z,0.00
2019-05-21T03:15:49.060Z,0.00
2019-05-21T03:16:49.089Z,0.00
2019-05-21T03:17:49.030Z,0.00
2019-05-21T03:18:49.089Z,0.00
2019-05-21T03:19:49.095Z,0.00
2019-05-21T03:20:49.030Z,0.00
2019-05-21T03:21:49.021Z,0.00
2019-05-21T03:22:49.020Z,0.00
2019-05-21T03:23:48.992Z,0.00
2019-05-21T03:24:48.963Z,0.00
2019-05-21T03:25:48.951Z,0.00
2019-05-21T03:26:48.984Z,0.00
2019-05-21T03:27:48.937Z,0.00
2019-05-21T03:28:48.939Z,0.00
2019-05-21T03:29:48.945Z,0.00
2019-05-21T03:30:48.933Z,0.00
2019-05-21T03:31:48.934Z,0.00
2019-05-21T03:32:48.872Z,0.00
2019-05-21T03:33:48.875Z,0.00
2019-05-21T03:34:48.861Z,0.00
2019-05-21T03:35:48.862Z,0.00
2019-05-21T03:36:48.914Z,0.00
2019-05-21T03:37:48.807Z,0.00
2019-05-21T03:38:48.836Z,0.00
2019-05-21T03:39:48.798Z,0.00
2019-05-21T03:40:48.782Z,0.00
2019-05-21T03:41:48.785Z,0.00
2019-05-21T03:42:48.759Z,0.00
2019-05-21T03:43:48.795Z,0.00
2019-05-21T03:44:59.507Z,0.00
2019-05-21T03:45:48.761Z,0.00
2019-05-21T03:46:48.733Z,0.00
2019-05-21T03:47:48.756Z,0.00
2019-05-21T03:48:48.711Z,0.00
2019-05-21T03:49:48.689Z,5.62
2019-05-21T03:50:48.735Z,5.62
2019-05-21T03:51:48.670Z,5.62
2019-05-21T03:52:48.664Z,5.62
2019-05-21T03:53:48.665Z,5.62
2019-05-21T03:54:48.666Z,5.62
2019-05-21T03:55:48.623Z,5.62
2019-05-21T03:56:48.644Z,5.62
2019-05-21T03:57:48.615Z,11.25
2019-05-21T03:58:48.601Z,11.25
2019-05-21T03:59:48.629Z,11.25
2019-05-21T04:00:48.623Z,11.25
2019-05-21T04:01:48.569Z,16.88
2019-05-21T04:02:48.607Z,11.25
2019-05-21T04:03:48.550Z,11.25
2019-05-21T04:04:48.526Z,5.62
2019-05-21T04:05:48.531Z,5.62
2019-05-21T04:06:51.891Z,5.62
2019-05-21T04:07:48.536Z,11.25
2019-05-21T04:08:48.504Z,5.62
2019-05-21T04:09:48.534Z,5.62
2019-05-21T04:10:48.462Z,5.62
2019-05-21T04:11:52.740Z,5.62
2019-05-21T04:12:48.508Z,5.62
2019-05-21T04:13:48.446Z,5.62
2019-05-21T04:14:48.448Z,11.25
2019-05-21T04:15:48.425Z,11.25
2019-05-21T04:16:48.424Z,11.25
2019-05-21T04:17:48.459Z,11.25
2019-05-21T04:18:48.399Z,11.25
2019-05-21T04:19:48.391Z,11.25
2019-05-21T04:20:48.419Z,11.25
2019-05-21T04:21:48.397Z,5.62
2019-05-21T04:22:48.399Z,5.62
2019-05-21T04:23:48.381Z,5.62
2019-05-21T04:24:48.323Z,11.25
2019-05-21T04:25:48.342Z,11.25
2019-05-21T04:26:48.288Z,5.62
2019-05-21T04:27:48.292Z,5.62
2019-05-21T04:28:48.253Z,11.25
2019-05-21T04:29:48.248Z,11.25
2019-05-21T04:30:48.246Z,16.88
2019-05-21T04:31:48.213Z,16.88
2019-05-21T04:32:48.273Z,16.88
2019-05-21T04:33:48.208Z,16.88
2019-05-21T04:34:48.211Z,16.88
2019-05-21T04:35:48.218Z,16.88
2019-05-21T04:36:48.168Z,22.50
2019-05-21T04:37:48.195Z,22.50
2019-05-21T04:38:48.153Z,22.50
2019-05-21T04:39:48.206Z,22.50
2019-05-21T04:40:48.140Z,22.50
2019-05-21T04:41:48.137Z,22.50
2019-05-21T04:42:48.157Z,22.50
2019-05-21T04:43:48.140Z,22.50
2019-05-21T04:44:48.106Z,28.12
2019-05-21T04:45:48.064Z,28.12
2019-05-21T04:46:48.159Z,22.50
2019-05-21T04:47:49.748Z,22.50
2019-05-21T05:26:54.111Z,22.50
2019-05-21T05:27:55.065Z,28.12
2019-05-21T05:28:55.070Z,28.12
2019-05-21T05:29:55.051Z,28.12
2019-05-21T05:30:55.045Z,33.75
2019-05-21T05:31:55.025Z,33.75
2019-05-21T05:32:55.052Z,28.12
2019-05-21T05:33:55.020Z,33.75
2019-05-21T05:34:55.009Z,33.75
2019-05-21T05:35:54.989Z,33.75
2019-05-21T05:36:54.981Z,33.75
2019-05-21T05:37:54.997Z,33.75
2019-05-21T05:38:54.989Z,33.75
2019-05-21T05:39:54.939Z,28.12
2019-05-21T05:40:54.949Z,28.12
2019-05-21T05:41:54.954Z,28.12
2019-05-21T05:42:54.952Z,28.12
2019-05-21T05:43:54.918Z,28.12
2019-05-21T05:44:54.938Z,28.12
2019-05-21T05:45:54.909Z,33.75
2019-05-21T05:46:54.860Z,39.38
2019-05-21T05:47:54.866Z,39.38
2019-05-21T05:48:54.846Z,39.38
2019-05-21T05:49:54.835Z,39.38
2019-05-21T05:50:54.823Z,33.75
2019-05-21T05:51:54.832Z,33.75
2019-05-21T05:52:54.801Z,33.75
2019-05-21T05:53:54.799Z,39.38
2019-05-21T05:54:54.767Z,45.00
2019-05-21T05:55:54.756Z,50.62
2019-05-21T05:56:54.745Z,50.62
2019-05-21T05:57:54.752Z,50.62
2019-05-21T05:58:54.733Z,50.62
2019-05-21T05:59:54.744Z,50.62
2019-05-21T06:00:54.701Z,50.62
2019-05-21T06:01:54.694Z,50.62
2019-05-21T06:02:54.669Z,56.25
2019-05-21T06:03:54.689Z,50.62
2019-05-21T06:04:54.647Z,45.00
2019-05-21T06:05:54.654Z,45.00
2019-05-21T06:06:54.634Z,50.62
2019-05-21T06:07:59.608Z,45.00
2019-05-21T06:08:54.628Z,45.00
2019-05-21T06:09:54.609Z,50.62
2019-05-21T06:10:54.596Z,50.62
2019-05-21T06:11:54.586Z,50.62
2019-05-21T06:12:54.576Z,56.25
2019-05-21T06:13:54.596Z,67.50
2019-05-21T06:14:54.561Z,73.12
2019-05-21T06:15:54.549Z,73.12
2019-05-21T06:16:54.541Z,73.12
2019-05-21T06:17:54.510Z,73.12
2019-05-21T06:18:54.540Z,78.75
2019-05-21T06:19:54.497Z,78.75
2019-05-21T06:20:54.484Z,73.12
2019-05-21T06:21:54.470Z,84.38
2019-05-21T06:22:54.458Z,84.38
2019-05-21T06:23:54.470Z,84.38
2019-05-21T06:24:54.443Z,90.00
2019-05-21T06:25:54.434Z,95.62
2019-05-21T06:26:54.411Z,101.25
2019-05-21T06:27:54.403Z,101.25
2019-05-21T06:28:54.402Z,106.88
2019-05-21T06:29:54.397Z,106.88
2019-05-21T06:30:54.388Z,118.12
2019-05-21T06:31:54.363Z,106.88
2019-05-21T06:32:54.352Z,112.50
2019-05-21T06:33:54.373Z,106.88
2019-05-21T06:34:54.335Z,106.88
2019-05-21T06:35:54.321Z,101.25
2019-05-21T06:36:54.311Z,90.00
2019-05-21T06:37:54.308Z,95.62
2019-05-21T06:38:54.310Z,95.62
2019-05-21T06:39:54.268Z,95.62
2019-05-21T06:40:54.267Z,90.00
2019-05-21T06:41:54.275Z,95.62
2019-05-21T06:42:54.237Z,112.50
2019-05-21T06:43:54.241Z,129.38
2019-05-21T06:44:54.237Z,123.75
2019-05-21T06:45:54.222Z,123.75
2019-05-21T06:46:54.203Z,123.75
2019-05-21T06:47:54.187Z,123.75
2019-05-21T06:48:54.168Z,123.75
2019-05-21T06:49:54.193Z,129.38
2019-05-21T06:50:54.153Z,129.38
2019-05-21T06:51:54.149Z,135.00
2019-05-21T06:52:54.125Z,135.00
2019-05-21T06:53:54.114Z,123.75
2019-05-21T06:54:54.137Z,112.50
2019-05-21T06:55:54.090Z,106.88
2019-05-21T06:56:54.087Z,112.50
2019-05-21T06:57:54.083Z,106.88
2019-05-21T06:58:54.069Z,95.62
2019-05-21T06:59:54.063Z,101.25
2019-05-21T07:00:54.053Z,95.62
2019-05-21T07:01:54.028Z,95.62
2019-05-21T07:02:54.022Z,101.25
2019-05-21T07:03:54.011Z,95.62
2019-05-21T07:04:54.040Z,101.25
2019-05-21T07:05:58.768Z,118.12
2019-05-21T07:06:54.002Z,135.00
2019-05-21T07:07:53.976Z,129.38
2019-05-21T07:08:53.952Z,135.00
2019-05-21T07:09:53.962Z,140.62
2019-05-21T07:10:53.934Z,123.75
2019-05-21T07:11:53.918Z,118.12
2019-05-21T07:12:53.902Z,123.75
2019-05-21T07:13:53.906Z,118.12
2019-05-21T07:14:53.906Z,123.75
2019-05-21T07:15:53.866Z,129.38
2019-05-21T07:16:53.880Z,112.50
2019-05-21T07:17:53.842Z,106.88
2019-05-21T07:18:53.848Z,106.88
2019-05-21T07:19:53.839Z,118.12
2019-05-21T07:20:53.824Z,129.38
2019-05-21T07:21:53.800Z,123.75
2019-05-21T07:22:53.931Z,129.38
2019-05-21T07:23:53.785Z,112.50
2019-05-21T07:24:53.808Z,123.75
2019-05-21T07:25:53.775Z,140.62
2019-05-21T07:28:02.965Z,151.88
2019-05-21T07:29:03.958Z,151.88
2019-05-21T07:30:04.065Z,174.38
2019-05-21T07:31:03.922Z,230.62
2019-05-21T07:32:03.898Z,230.62
2019-05-21T07:33:03.890Z,213.75
2019-05-21T07:34:03.880Z,225.00
2019-05-21T07:35:03.888Z,236.25
2019-05-21T07:36:03.863Z,225.00
2019-05-21T07:37:03.848Z,219.38
2019-05-21T07:38:03.832Z,219.38
2019-05-21T07:39:03.819Z,230.62
2019-05-21T07:40:03.842Z,241.88
2019-05-21T07:41:03.794Z,258.75
2019-05-21T07:42:03.787Z,253.12
2019-05-21T07:43:03.786Z,253.12
2019-05-21T07:44:03.770Z,275.62
2019-05-21T07:45:03.772Z,270.00
2019-05-21T07:46:03.748Z,241.88
2019-05-21T07:47:03.746Z,236.25
2019-05-21T07:48:03.730Z,208.12
2019-05-21T07:49:03.705Z,191.25
2019-05-21T07:50:03.717Z,213.75
2019-05-21T07:51:03.701Z,196.88
2019-05-21T07:52:03.688Z,196.88
2019-05-21T07:53:03.662Z,185.62
2019-05-21T07:54:03.692Z,191.25
2019-05-21T07:55:03.678Z,202.50
2019-05-21T07:56:03.640Z,196.88
2019-05-21T07:57:03.727Z,208.12
2019-05-21T07:58:03.609Z,202.50
2019-05-21T07:59:03.648Z,196.88
2019-05-21T08:00:03.655Z,208.12
2019-05-21T08:01:03.623Z,230.62
2019-05-21T08:03:02.589Z,185.62
2019-05-21T08:04:03.576Z,157.50
2019-05-21T08:05:03.639Z,146.25
2019-05-21T08:06:03.563Z,157.50
2019-05-21T08:07:03.534Z,151.88
2019-05-21T08:08:03.515Z,140.62
2019-05-21T08:09:13.526Z,146.25
2019-05-21T08:10:03.520Z,151.88
2019-05-21T08:11:03.511Z,151.88
2019-05-21T08:12:27.489Z,157.50
2019-05-21T08:13:03.457Z,163.12
2019-05-21T08:14:03.435Z,196.88
2019-05-21T08:15:03.469Z,163.12
2019-05-21T08:16:03.441Z,157.50
2019-05-21T08:17:03.431Z,168.75
2019-05-21T08:18:03.399Z,168.75
2019-05-21T08:19:03.398Z,168.75
2019-05-21T08:20:09.110Z,163.12
2019-05-21T08:21:03.364Z,168.75
2019-05-21T08:22:03.364Z,151.88
2019-05-21T08:23:03.358Z,146.25
2019-05-21T08:24:03.325Z,135.00
2019-05-21T08:25:03.360Z,129.38
2019-05-21T08:26:03.330Z,140.62
2019-05-21T08:27:03.325Z,140.62
2019-05-21T08:28:03.300Z,151.88
2019-05-21T08:29:03.276Z,129.38
2019-05-21T08:30:03.359Z,123.75
2019-05-21T08:31:03.276Z,140.62
2019-05-21T08:32:03.253Z,157.50
2019-05-21T08:33:03.343Z,213.75
2019-05-21T08:34:03.257Z,213.75
2019-05-21T08:35:03.291Z,180.00
2019-05-21T08:36:03.335Z,168.75
2019-05-21T08:37:03.182Z,174.38
2019-05-21T08:38:06.499Z,168.75
2019-05-21T08:39:03.206Z,168.75
2019-05-21T08:40:03.202Z,163.12
2019-05-21T08:41:03.198Z,151.88
2019-05-21T08:42:03.123Z,163.12
2019-05-21T08:43:03.144Z,168.75
2019-05-21T08:44:03.092Z,163.12
2019-05-21T08:45:03.869Z,157.50
2019-05-21T08:46:03.097Z,180.00
2019-05-21T08:47:03.111Z,174.38
2019-05-21T09:22:57.565Z,90.00
2019-05-21T09:24:08.743Z,90.00
2019-05-21T09:24:47.629Z,90.00
2019-05-21T09:25:44.825Z,90.00
2019-05-21T09:26:44.834Z,90.00
2019-05-21T09:27:44.815Z,95.62
2019-05-21T09:28:44.800Z,95.62
2019-05-21T09:29:44.775Z,95.62
2019-05-21T09:30:44.778Z,95.62
2019-05-21T09:31:44.757Z,95.62
2019-05-21T09:32:44.743Z,101.25
2019-05-21T09:33:44.732Z,101.25
2019-05-21T09:34:49.425Z,106.88
2019-05-21T09:35:44.716Z,112.50
2019-05-21T09:36:44.732Z,112.50
2019-05-21T09:37:44.678Z,123.75
2019-05-21T09:38:44.666Z,123.75
2019-05-21T09:39:44.670Z,123.75
2019-05-21T09:40:44.656Z,123.75
2019-05-21T09:41:44.732Z,101.25
2019-05-21T09:42:45.391Z,90.00
2019-05-21T09:43:44.642Z,95.62
2019-05-21T09:44:44.663Z,90.00
2019-05-21T09:45:44.592Z,90.00
2019-05-21T09:46:44.621Z,95.62
2019-05-21T09:47:44.577Z,90.00
2019-05-21T09:48:44.607Z,90.00
2019-05-21T09:49:44.563Z,90.00
2019-05-21T09:50:44.587Z,90.00
2019-05-21T09:51:44.563Z,84.38
2019-05-21T09:52:44.544Z,84.38
2019-05-21T09:53:44.537Z,84.38
2019-05-21T09:54:44.495Z,95.62
2019-05-21T09:55:44.520Z,95.62
2019-05-21T10:00:48.252Z,101.25
2019-05-21T10:01:49.318Z,106.88
2019-05-21T10:02:49.237Z,118.12
2019-05-21T10:03:49.237Z,123.75
2019-05-21T10:04:49.283Z,123.75
2019-05-21T10:05:49.230Z,118.12
2019-05-21T10:06:49.209Z,112.50
2019-05-21T10:07:49.201Z,112.50
2019-05-21T10:08:49.168Z,118.12
2019-05-21T10:09:49.222Z,123.75
2019-05-21T10:10:49.143Z,140.62
2019-05-21T10:11:49.174Z,123.75
2019-05-21T10:12:49.120Z,123.75
2019-05-21T11:22:31.480Z,95.62
2019-05-21T11:23:32.385Z,90.00
2019-05-21T11:24:32.360Z,95.62
2019-05-21T11:25:32.355Z,95.62
2019-05-21T11:26:32.354Z,95.62
2019-05-21T11:27:32.361Z,95.62
2019-05-21T11:28:32.312Z,95.62
2019-05-21T11:29:32.316Z,95.62
2019-05-21T11:30:32.395Z,90.00
2019-05-21T11:31:32.360Z,90.00
2019-05-21T11:32:32.283Z,95.62
2019-05-21T11:33:32.326Z,84.38
2019-05-21T11:34:32.267Z,78.75
2019-05-21T11:35:35.595Z,84.38
2019-05-21T11:36:32.231Z,78.75
2019-05-21T11:37:32.246Z,78.75
2019-05-21T11:38:39.834Z,78.75
2019-05-21T11:39:32.174Z,78.75
2019-05-21T11:40:32.235Z,78.75
2019-05-21T11:41:32.256Z,78.75
2019-05-21T11:42:32.174Z,73.12
2019-05-21T11:43:32.232Z,73.12
2019-05-21T11:44:32.202Z,73.12
2019-05-21T11:45:33.174Z,73.12
2019-05-21T11:46:32.103Z,73.12
2019-05-21T11:47:32.125Z,73.12
2019-05-21T11:48:32.183Z,73.12
2019-05-21T11:49:32.083Z,78.75
2019-05-21T11:50:32.129Z,78.75
2019-05-21T11:51:32.062Z,84.38
2019-05-21T11:52:32.078Z,90.00
2019-05-21T11:53:32.398Z,95.62
2019-05-21T11:54:32.031Z,90.00
2019-05-21T11:55:32.047Z,84.38
2019-05-21T11:56:32.046Z,90.00
2019-05-21T11:57:32.011Z,95.62
2019-05-21T11:58:32.140Z,90.00
2019-05-21T11:59:31.996Z,95.62
2019-05-21T12:00:32.003Z,95.62
2019-05-21T12:01:31.963Z,84.38
2019-05-21T12:02:31.966Z,90.00
2019-05-21T12:03:31.994Z,78.75
2019-05-21T12:04:31.930Z,78.75
2019-05-21T12:05:31.951Z,84.38
2019-05-21T12:06:31.925Z,84.38
2019-05-21T12:07:31.929Z,84.38
2019-05-21T12:08:31.898Z,90.00
2019-05-21T12:09:31.885Z,84.38
2019-05-21T12:10:31.863Z,78.75
2019-05-21T12:11:31.850Z,90.00
2019-05-21T12:12:31.842Z,84.38
2019-05-21T12:13:31.847Z,90.00
2019-05-21T12:14:31.839Z,95.62
2019-05-21T12:15:31.836Z,84.38
2019-05-21T12:16:31.822Z,78.75
2019-05-21T12:17:31.783Z,78.75
2019-05-21T12:18:31.777Z,78.75
2019-05-21T12:19:31.740Z,78.75
2019-05-21T12:20:36.697Z,73.12
2019-05-21T12:21:31.732Z,78.75
2019-05-21T12:22:31.757Z,95.62
2019-05-21T12:23:31.785Z,84.38
2019-05-21T12:24:31.731Z,84.38
2019-05-21T12:25:31.697Z,101.25
2019-05-21T12:26:31.684Z,84.38
2019-05-21T12:27:31.707Z,73.12
2019-05-21T12:28:31.684Z,78.75
2019-05-21T12:29:34.227Z,78.75
2019-05-21T12:30:31.659Z,78.75
2019-05-21T12:31:31.669Z,78.75
2019-05-21T12:32:31.616Z,73.12
2019-05-21T12:33:34.906Z,78.75
2019-05-21T12:34:31.605Z,78.75
2019-05-21T12:35:31.633Z,78.75
2019-05-21T12:36:31.572Z,90.00
2019-05-21T12:37:31.557Z,95.62
2019-05-21T12:38:31.566Z,101.25
2019-05-21T12:39:31.598Z,95.62
2019-05-21T12:40:31.538Z,101.25
2019-05-21T12:41:31.528Z,90.00
2019-05-21T12:42:31.507Z,101.25
2019-05-21T12:43:31.546Z,106.88
2019-05-21T12:44:31.520Z,106.88
2019-05-21T12:45:31.518Z,101.25
2019-05-21T12:46:31.470Z,118.12
2019-05-21T12:47:31.486Z,112.50
2019-05-21T12:48:31.464Z,118.12
2019-05-21T12:49:31.483Z,118.12
2019-05-21T12:50:31.439Z,112.50
2019-05-21T12:51:31.408Z,118.12
2019-05-21T12:52:33.777Z,118.12
2019-05-21T12:53:31.424Z,140.62
2019-05-21T12:54:31.468Z,174.38
2019-05-21T12:55:31.408Z,185.62
2019-05-21T12:56:31.385Z,202.50
2019-05-21T12:57:31.359Z,202.50
2019-05-21T12:58:31.336Z,196.88
2019-05-21T12:59:31.434Z,185.62
2019-05-21T13:00:31.318Z,146.25
2019-05-21T13:01:31.307Z,140.62
2019-05-21T13:02:31.323Z,135.00
2019-05-21T13:03:31.322Z,135.00
2019-05-21T13:04:31.283Z,135.00
2019-05-21T13:05:31.322Z,112.50
2019-05-21T13:06:31.262Z,101.25
2019-05-21T13:07:31.315Z,90.00
2019-05-21T13:08:31.232Z,95.62
2019-05-21T13:09:32.993Z,90.00
2019-05-21T13:10:31.254Z,84.38
2019-05-21T13:11:31.255Z,90.00
2019-05-21T13:12:31.259Z,84.38
2019-05-21T13:13:31.186Z,90.00
2019-05-21T13:14:31.185Z,95.62
2019-05-21T13:15:31.160Z,90.00
2019-05-21T13:16:31.171Z,95.62
2019-05-21T13:17:31.137Z,101.25
2019-05-21T13:18:31.135Z,112.50
2019-05-21T13:19:31.140Z,118.12
2019-05-21T13:20:31.102Z,135.00
2019-05-21T13:21:31.116Z,140.62
2019-05-21T13:43:21.184Z,56.25
2019-05-21T13:44:19.028Z,73.12
2019-05-21T13:45:19.058Z,78.75
2019-05-21T13:46:19.001Z,73.12
2019-05-21T13:47:19.001Z,67.50
2019-05-21T13:48:19.007Z,67.50
2019-05-21T13:49:19.012Z,73.12
2019-05-21T13:50:18.976Z,73.12
2019-05-21T13:51:18.953Z,78.75
2019-05-21T13:52:18.954Z,78.75
2019-05-21T13:53:18.959Z,67.50
2019-05-21T13:54:18.917Z,56.25
2019-05-21T13:55:18.982Z,56.25
2019-05-21T13:56:18.920Z,61.88
2019-05-21T13:57:18.967Z,73.12
2019-05-21T13:58:18.865Z,67.50
2019-05-21T13:59:18.913Z,61.88
2019-05-21T14:00:18.866Z,73.12
2019-05-21T14:01:18.873Z,95.62
2019-05-21T14:02:19.490Z,112.50
2019-05-21T14:03:18.874Z,123.75
2019-05-21T14:04:19.101Z,129.38
2019-05-21T14:05:18.822Z,123.75
2019-05-21T14:06:20.446Z,163.12
2019-05-21T14:07:18.835Z,185.62
2019-05-21T14:08:18.766Z,202.50
2019-05-21T14:09:18.798Z,219.38
2019-05-21T14:10:21.212Z,236.25
2019-05-21T14:11:18.774Z,241.88
2019-05-21T14:12:18.721Z,236.25
2019-05-21T14:13:18.720Z,225.00
2019-05-21T14:14:18.730Z,213.75
2019-05-21T14:15:18.710Z,213.75
2019-05-21T14:16:18.740Z,213.75
2019-05-21T14:17:18.674Z,213.75
2019-05-21T14:18:18.673Z,202.50
2019-05-21T14:19:18.692Z,196.88
2019-05-21T14:20:18.714Z,185.62
2019-05-21T14:21:18.633Z,191.25
2019-05-21T14:22:18.630Z,191.25
2019-05-21T14:23:18.652Z,202.50
2019-05-21T14:24:18.610Z,208.12
2019-05-21T14:25:18.581Z,196.88
2019-05-21T14:26:18.610Z,191.25
2019-05-21T14:27:18.578Z,196.88
2019-05-21T14:28:18.571Z,213.75
2019-05-21T14:29:18.550Z,236.25
2019-05-21T14:30:18.529Z,247.50
2019-05-21T14:31:18.525Z,258.75
2019-05-21T14:32:18.492Z,275.62
2019-05-21T14:33:18.504Z,292.50
2019-05-21T14:34:18.480Z,309.38
2019-05-21T14:35:18.489Z,315.00
2019-05-21T14:36:18.524Z,320.62
2019-05-21T14:37:18.474Z,331.88
2019-05-21T14:38:18.440Z,331.88
2019-05-21T14:39:18.454Z,343.12
2019-05-21T14:40:31.270Z,343.12
2019-05-21T14:41:18.449Z,348.75
2019-05-21T14:42:18.376Z,348.75
2019-05-21T14:43:18.406Z,348.75
2019-05-21T14:44:18.376Z,343.12
2019-05-21T14:45:18.401Z,337.50
2019-05-21T14:46:18.435Z,326.25
2019-05-21T14:47:18.366Z,320.62
2019-05-21T14:48:18.374Z,315.00
2019-05-21T14:49:18.300Z,315.00
2019-05-21T14:50:18.370Z,303.75
2019-05-21T14:51:18.307Z,303.75
2019-05-21T14:52:18.292Z,303.75
2019-05-21T14:53:18.276Z,298.12
2019-05-21T14:54:26.844Z,281.25
2019-05-21T14:55:18.261Z,258.75
2019-05-21T14:56:18.234Z,258.75
2019-05-21T14:57:18.283Z,264.38
2019-05-21T14:58:18.210Z,258.75
2019-05-21T14:59:18.315Z,258.75
2019-05-21T15:00:18.228Z,258.75
2019-05-21T15:01:18.237Z,247.50
2019-05-21T15:02:18.225Z,230.62
2019-05-21T15:03:25.290Z,213.75
2019-05-21T15:04:18.405Z,202.50
2019-05-21T15:05:18.178Z,196.88
2019-05-21T15:06:18.139Z,191.25
2019-05-21T15:07:18.166Z,180.00
2019-05-21T15:08:18.106Z,174.38
2019-05-21T15:09:18.153Z,185.62
2019-05-21T15:10:18.101Z,191.25
2019-05-21T15:11:18.121Z,196.88
2019-05-21T15:12:18.105Z,208.12
2019-05-21T15:13:18.087Z,213.75
2019-05-21T15:14:18.072Z,208.12
2019-05-21T15:15:18.086Z,191.25
2019-05-21T15:16:18.033Z,180.00
2019-05-21T15:17:18.098Z,191.25
2019-05-21T15:18:21.911Z,185.62
2019-05-21T15:19:17.989Z,180.00
2019-05-21T15:20:18.050Z,168.75
2019-05-21T15:21:17.964Z,163.12
2019-05-21T15:22:18.019Z,157.50
2019-05-21T15:23:18.000Z,151.88
2019-05-21T15:24:17.987Z,146.25
2019-05-21T15:25:17.978Z,135.00
2019-05-21T15:26:17.919Z,135.00
2019-05-21T15:27:17.911Z,140.62
2019-05-21T15:28:17.923Z,135.00
2019-05-21T15:29:17.878Z,140.62
2019-05-21T15:30:17.878Z,146.25
2019-05-21T15:31:18.507Z,140.62
2019-05-21T15:32:17.932Z,140.62
2019-05-21T15:33:17.866Z,140.62
2019-05-21T15:34:17.824Z,157.50
2019-05-21T15:35:17.833Z,168.75
2019-05-21T15:36:17.838Z,174.38
2019-05-21T15:37:17.993Z,168.75
2019-05-21T15:38:17.780Z,163.12
2019-05-21T15:39:17.783Z,163.12
2019-05-21T15:40:17.743Z,151.88
2019-05-21T15:41:17.798Z,151.88
2019-05-21T15:42:17.763Z,151.88
2019-05-21T16:13:38.519Z,78.75
2019-05-21T16:14:39.517Z,84.38
2019-05-21T16:15:39.542Z,73.12
2019-05-21T16:16:39.466Z,67.50
2019-05-21T16:17:40.639Z,78.75
2019-05-21T16:18:40.384Z,90.00
2019-05-21T16:19:39.444Z,78.75
2019-05-21T16:20:42.412Z,78.75
2019-05-21T16:21:39.411Z,90.00